Gulf Winds — WDH8834 — position and weather

sailwx.info

Track history (hours):
 
Tides and Currents Weather Stations Pressure Air Temp Water Temp Dewpoint Dewpoint Depression Visibility Wind Speed Wind Dir Waves Ship Positions

Gulf Winds

Owner: HIGHLAND LIGHT SEAFOODS, LLC, SEATTLE, WA. More information available from US FCC via Universal Licensing System and Coast Guard Vessel Documentation Center.

Last reported at 2018-Aug-18 00:46 UTC. Time now 2018-Aug-21 01:56 UTC.
Position N 48°42' W 122°33'.

Length 34 m.

MMSI: 366869780.

Date/timePositionNaut miles runAvg speedWind from/ knotsBaromVisibWave heightAir tempDewpointWater temp
2018-Aug-18 00:46N 48°42' W 122°33'5 7.3
2018-Aug-18 00:07N 48°38' W 122°37'1 8.6
2018-Aug-18 00:00N 48°38' W 122°38'4 8.8
2018-Aug-17 23:30N 48°41' W 122°43'17 8.3
2018-Aug-17 21:26N 48°52' W 123°03'4 8.4
2018-Aug-17 20:58N 48°54' W 123°08'4 8.5
2018-Aug-17 20:28N 48°56' W 123°13'4 8.6
2018-Aug-17 20:00N 48°58' W 123°18'4 8.3
2018-Aug-17 19:30N 49°01' W 123°23'4 8.4
2018-Aug-17 19:00N 49°04' W 123°28'4 7.9
2018-Aug-17 18:30N 49°07' W 123°32'4 8.4
2018-Aug-17 18:00N 49°09' W 123°37'4 8.6
2018-Aug-17 17:30N 49°12' W 123°42'4 8.9
2018-Aug-17 17:00N 49°14' W 123°48'4 8.7
2018-Aug-17 16:30N 49°16' W 123°54'4 8.7
2018-Aug-17 16:00N 49°19' W 123°60'4 8.4
2018-Aug-17 15:29N 49°21' W 124°05'4 8.5
2018-Aug-17 15:00N 49°23' W 124°11'4 8.1
2018-Aug-17 14:29N 49°25' W 124°16'17 8.5
2018-Aug-17 12:30N 49°36' W 124°36'5 8.5
2018-Aug-17 11:55N 49°40' W 124°42'3 8.4
2018-Aug-17 11:30N 49°42' W 124°45'4 8.4
2018-Aug-17 11:00N 49°45' W 124°50'4 8.2
2018-Aug-17 10:30N 49°48' W 124°55'4 8.4
2018-Aug-17 10:00N 49°51' W 124°59'4 8.1
2018-Aug-17 09:30N 49°54' W 125°04'4 7.7
2018-Aug-17 09:00N 49°57' W 125°08'3 6.7
2018-Aug-17 08:30N 49°59' W 125°12'2 3.8
2018-Aug-17 08:00N 50°01' W 125°12'1 2.7
2018-Aug-17 07:31N 50°02' W 125°13'2 3.9
2018-Aug-17 07:01N 50°03' W 125°15'2 4.7
2018-Aug-17 06:30N 50°05' W 125°17'3 5.8
2018-Aug-17 06:01N 50°07' W 125°21'3 5.5
2018-Aug-17 05:30N 50°10' W 125°22'3 6.8
2018-Aug-17 05:00N 50°13' W 125°23'4 7.8
2018-Aug-17 04:30N 50°17' W 125°25'68 8.0
2018-Aug-16 19:59N 50°45' W 127°02'5 7.7
2018-Aug-16 19:21N 50°48' W 127°08'3 8.0
2018-Aug-16 19:00N 50°49' W 127°12'4 8.0
2018-Aug-16 18:30N 50°51' W 127°17'4 7.5
2018-Aug-16 18:00N 50°54' W 127°22'3 7.0
2018-Aug-16 17:30N 50°56' W 127°27'3 6.3
2018-Aug-16 17:01N 50°58' W 127°30'3 7.0
2018-Aug-16 16:30N 50°60' W 127°35'4 7.0
2018-Aug-16 16:00N 51°02' W 127°39'3 6.9
2018-Aug-16 15:30N 51°05' W 127°42'4 6.8
2018-Aug-16 14:58N 51°08' W 127°46'3 6.7
2018-Aug-16 14:30N 51°10' W 127°49'4 7.6
2018-Aug-16 14:00N 51°14' W 127°51'5 7.4
2018-Aug-16 13:16N 51°19' W 127°51'2 7.5
2018-Aug-16 12:57N 51°22' W 127°51'4 8.0
2018-Aug-16 12:30N 51°25' W 127°51'4 8.2
2018-Aug-16 12:00N 51°29' W 127°52'4 7.9
2018-Aug-16 11:31N 51°33' W 127°52'4 7.8
2018-Aug-16 11:01N 51°37' W 127°53'4 7.8
2018-Aug-16 10:30N 51°41' W 127°55'4 7.8
2018-Aug-16 10:00N 51°45' W 127°55'4 7.8
2018-Aug-16 09:30N 51°49' W 127°55'4 7.8
2018-Aug-16 09:00N 51°53' W 127°56'4 7.7
2018-Aug-16 08:30N 51°56' W 127°56'4 7.3
2018-Aug-16 08:00N 52°00' W 127°56'4 7.4
2018-Aug-16 07:31N 52°04' W 127°56'4 8.0
2018-Aug-16 07:00N 52°04' W 128°03'4 7.2
2018-Aug-16 06:31N 52°06' W 128°08'3 6.2
2018-Aug-16 06:00N 52°09' W 128°08'3 5.4
2018-Aug-16 05:30N 52°12' W 128°07'4 7.5
2018-Aug-16 05:00N 52°14' W 128°12'4 7.4
2018-Aug-16 04:30N 52°15' W 128°18'3 6.4
2018-Aug-16 03:59N 52°15' W 128°23'4 7.2
2018-Aug-16 03:27N 52°18' W 128°28'4 8.0
2018-Aug-16 02:57N 52°21' W 128°31'4 8.0
2018-Aug-16 02:30N 52°25' W 128°30'98 7.1
2018-Aug-15 12:45N 53°47' W 129°56'2 8.3
2018-Aug-15 12:30N 53°49' W 129°59'4 8.1
2018-Aug-15 12:00N 53°52' W 130°03'4 7.8
2018-Aug-15 11:30N 53°54' W 130°09'4 7.2
2018-Aug-15 11:00N 53°57' W 130°12'4 7.5
2018-Aug-15 10:30N 54°01' W 130°13'3 6.7
2018-Aug-15 10:00N 54°04' W 130°16'4 7.5
2018-Aug-15 09:30N 54°06' W 130°21'4 7.5
2018-Aug-15 09:00N 54°09' W 130°25'4 7.3
2018-Aug-15 08:30N 54°12' W 130°28'4 7.7
2018-Aug-15 08:00N 54°16' W 130°31'4 7.6
2018-Aug-15 07:30N 54°19' W 130°34'4 7.6
2018-Aug-15 07:00N 54°23' W 130°35'4 7.6
2018-Aug-15 06:30N 54°26' W 130°37'4 7.5
2018-Aug-15 06:00N 54°30' W 130°38'4 7.6
2018-Aug-15 05:27N 54°34' W 130°40'  
2018-Aug-12 21:09N 58°18' W 135°46'1 8.3
2018-Aug-12 21:00N 58°18' W 135°48'4 8.5
2018-Aug-12 20:29N 58°20' W 135°56'610.1
2018-Aug-12 19:56N 58°19' W 136°07'  
Track history (hours):
 
Tides and Currents Weather Stations Pressure Air Temp Water Temp Dewpoint Dewpoint Depression Visibility Wind Speed Wind Dir Waves Ship Positions

Gulf Winds

Owner: HIGHLAND LIGHT SEAFOODS, LLC, SEATTLE, WA. More information available from US FCC via Universal Licensing System and Coast Guard Vessel Documentation Center.

Last reported at 2018-Aug-18 00:46 UTC. Time now 2018-Aug-21 01:56 UTC.
Position N 48°42' W 122°33'.

Length 34 m.

MMSI: 366869780.

Date/timePositionNaut miles runAvg speedWind from/ knotsBaromVisibWave heightAir tempDewpointWater temp
2018-Aug-18 00:46N 48°42' W 122°33'5 7.3
2018-Aug-18 00:07N 48°38' W 122°37'1 8.6
2018-Aug-18 00:00N 48°38' W 122°38'4 8.8
2018-Aug-17 23:30N 48°41' W 122°43'17 8.3
2018-Aug-17 21:26N 48°52' W 123°03'4 8.4
2018-Aug-17 20:58N 48°54' W 123°08'4 8.5
2018-Aug-17 20:28N 48°56' W 123°13'4 8.6
2018-Aug-17 20:00N 48°58' W 123°18'4 8.3
2018-Aug-17 19:30N 49°01' W 123°23'4 8.4
2018-Aug-17 19:00N 49°04' W 123°28'4 7.9
2018-Aug-17 18:30N 49°07' W 123°32'4 8.4
2018-Aug-17 18:00N 49°09' W 123°37'4 8.6
2018-Aug-17 17:30N 49°12' W 123°42'4 8.9
2018-Aug-17 17:00N 49°14' W 123°48'4 8.7
2018-Aug-17 16:30N 49°16' W 123°54'4 8.7
2018-Aug-17 16:00N 49°19' W 123°60'4 8.4
2018-Aug-17 15:29N 49°21' W 124°05'4 8.5
2018-Aug-17 15:00N 49°23' W 124°11'4 8.1
2018-Aug-17 14:29N 49°25' W 124°16'17 8.5
2018-Aug-17 12:30N 49°36' W 124°36'5 8.5
2018-Aug-17 11:55N 49°40' W 124°42'3 8.4
2018-Aug-17 11:30N 49°42' W 124°45'4 8.4
2018-Aug-17 11:00N 49°45' W 124°50'4 8.2
2018-Aug-17 10:30N 49°48' W 124°55'4 8.4
2018-Aug-17 10:00N 49°51' W 124°59'4 8.1
2018-Aug-17 09:30N 49°54' W 125°04'4 7.7
2018-Aug-17 09:00N 49°57' W 125°08'3 6.7
2018-Aug-17 08:30N 49°59' W 125°12'2 3.8
2018-Aug-17 08:00N 50°01' W 125°12'1 2.7
2018-Aug-17 07:31N 50°02' W 125°13'2 3.9
2018-Aug-17 07:01N 50°03' W 125°15'2 4.7
2018-Aug-17 06:30N 50°05' W 125°17'3 5.8
2018-Aug-17 06:01N 50°07' W 125°21'3 5.5
2018-Aug-17 05:30N 50°10' W 125°22'3 6.8
2018-Aug-17 05:00N 50°13' W 125°23'4 7.8
2018-Aug-17 04:30N 50°17' W 125°25'68 8.0
2018-Aug-16 19:59N 50°45' W 127°02'5 7.7
2018-Aug-16 19:21N 50°48' W 127°08'3 8.0
2018-Aug-16 19:00N 50°49' W 127°12'4 8.0
2018-Aug-16 18:30N 50°51' W 127°17'4 7.5
2018-Aug-16 18:00N 50°54' W 127°22'3 7.0
2018-Aug-16 17:30N 50°56' W 127°27'3 6.3
2018-Aug-16 17:01N 50°58' W 127°30'3 7.0
2018-Aug-16 16:30N 50°60' W 127°35'4 7.0
2018-Aug-16 16:00N 51°02' W 127°39'3 6.9
2018-Aug-16 15:30N 51°05' W 127°42'4 6.8
2018-Aug-16 14:58N 51°08' W 127°46'3 6.7
2018-Aug-16 14:30N 51°10' W 127°49'4 7.6
2018-Aug-16 14:00N 51°14' W 127°51'5 7.4
2018-Aug-16 13:16N 51°19' W 127°51'2 7.5
2018-Aug-16 12:57N 51°22' W 127°51'4 8.0
2018-Aug-16 12:30N 51°25' W 127°51'4 8.2
2018-Aug-16 12:00N 51°29' W 127°52'4 7.9
2018-Aug-16 11:31N 51°33' W 127°52'4 7.8
2018-Aug-16 11:01N 51°37' W 127°53'4 7.8
2018-Aug-16 10:30N 51°41' W 127°55'4 7.8
2018-Aug-16 10:00N 51°45' W 127°55'4 7.8
2018-Aug-16 09:30N 51°49' W 127°55'4 7.8
2018-Aug-16 09:00N 51°53' W 127°56'4 7.7
2018-Aug-16 08:30N 51°56' W 127°56'4 7.3
2018-Aug-16 08:00N 52°00' W 127°56'4 7.4
2018-Aug-16 07:31N 52°04' W 127°56'4 8.0
2018-Aug-16 07:00N 52°04' W 128°03'4 7.2
2018-Aug-16 06:31N 52°06' W 128°08'3 6.2
2018-Aug-16 06:00N 52°09' W 128°08'3 5.4
2018-Aug-16 05:30N 52°12' W 128°07'4 7.5
2018-Aug-16 05:00N 52°14' W 128°12'4 7.4
2018-Aug-16 04:30N 52°15' W 128°18'3 6.4
2018-Aug-16 03:59N 52°15' W 128°23'4 7.2
2018-Aug-16 03:27N 52°18' W 128°28'4 8.0
2018-Aug-16 02:57N 52°21' W 128°31'4 8.0
2018-Aug-16 02:30N 52°25' W 128°30'98 7.1
2018-Aug-15 12:45N 53°47' W 129°56'2 8.3
2018-Aug-15 12:30N 53°49' W 129°59'4 8.1
2018-Aug-15 12:00N 53°52' W 130°03'4 7.8
2018-Aug-15 11:30N 53°54' W 130°09'4 7.2
2018-Aug-15 11:00N 53°57' W 130°12'4 7.5
2018-Aug-15 10:30N 54°01' W 130°13'3 6.7
2018-Aug-15 10:00N 54°04' W 130°16'4 7.5
2018-Aug-15 09:30N 54°06' W 130°21'4 7.5
2018-Aug-15 09:00N 54°09' W 130°25'4 7.3
2018-Aug-15 08:30N 54°12' W 130°28'4 7.7
2018-Aug-15 08:00N 54°16' W 130°31'4 7.6
2018-Aug-15 07:30N 54°19' W 130°34'4 7.6
2018-Aug-15 07:00N 54°23' W 130°35'4 7.6
2018-Aug-15 06:30N 54°26' W 130°37'4 7.5
2018-Aug-15 06:00N 54°30' W 130°38'4 7.6
2018-Aug-15 05:27N 54°34' W 130°40'  
2018-Aug-12 21:09N 58°18' W 135°46'1 8.3
2018-Aug-12 21:00N 58°18' W 135°48'4 8.5
2018-Aug-12 20:29N 58°20' W 135°56'610.1
2018-Aug-12 19:56N 58°19' W 136°07'  

Dump ship's entire track history